首页
METAR-TAF:

METAR-TAF

机场 :

Gamèti, 西北特區, 加拿大

纬度: 64-06-58N, 经度: 117-18-35W, 海拔: 221米

当前天气观测

该预报发布于17小时和58分钟前的00:00 UTC
风速10节,风向东转东南,有时为15节阵风
温度 -4°C
湿度 46%
气压 1022 hPa
能見度: 24.1公里
散云层高于14000英尺

METAR: CYRA 090000Z 12010G15KT 15SM SCT140 M04/M14 A3017 RMK AC4 S0 AFT 14UTC / 42 / SNW CVR/MUCH LOOSE LAST STFD OBS/NEXT 091400 UTC SLP240

时间: 11:58 (17:58 UTC)

预报

该预报发布于23小时和20分钟前的18:38 UTC
预报有效从08日的 19点(UTC)到 08日的 24点(UTC)
风速5节,风向东南
能見度: 10公里
散云层高于6000英尺

TAF: CYRA 081838Z 0819/0824 14005KT P6SM SCT060 RMK NXT FCST WILL BE ISSUED AT 091545Z

超过4000个机场的气象观测和天气预报(METAR&TAF报告)。

可查询的气象台以黄色和红色小点在地图上表示。

将鼠标移到小点上方,可查看气象台名称。

然后点击查看天气观测和预报。

如需切换地图:点击带黑十字的绿色按钮放大地图;点击带横线的绿色按钮缩小地图;或者点击绿色箭头查看邻近地区的地图。


METAR-TAF: